Ft Sturla — IBXV — position and weather

sailwx.info

Track history (hours):
 
Tides and Currents Weather Stations Pressure Air Temp Water Temp Dewpoint Dewpoint Depression Visibility Wind Speed Wind Dir Waves Ship Positions

Ft Sturla

Last reported at 2017-Aug-23 15:31 UTC. Time now 2017-Aug-23 15:44 UTC.
Position N 38°37' E 009°03'.

Length 120 m; draft 5.5 m.

Type: Ship. MMSI: 247282200.

Date/timePositionNaut miles runAvg speedWind from/ knotsBaromVisibWave heightAir tempDewpointWater temp
2017-Aug-23 15:31N 38°37' E 009°03'611.1
2017-Aug-23 15:00N 38°36' E 009°11'1111.1
2017-Aug-23 14:00N 38°35' E 009°25'610.9
2017-Aug-23 13:30N 38°35' E 009°32'610.9
2017-Aug-23 12:59N 38°35' E 009°39'711.0
2017-Aug-23 12:19N 38°34' E 009°48'14611.0
2017-Aug-22 23:06N 38°23' E 012°54'111.0
2017-Aug-22 22:59N 38°23' E 012°55'511.2
2017-Aug-22 22:30N 38°22' E 013°02'611.2
2017-Aug-22 22:01N 38°22' E 013°09'611.1
2017-Aug-22 21:31N 38°22' E 013°16'611.1
2017-Aug-22 21:01N 38°22' E 013°23'611.2
2017-Aug-22 20:30N 38°21' E 013°30'611.2
2017-Aug-22 20:01N 38°20' E 013°37'611.1
2017-Aug-22 19:30N 38°20' E 013°45'511.1
2017-Aug-22 19:00N 38°20' E 013°52'611.0
2017-Aug-22 18:30N 38°19' E 013°59'4411.0
2017-Aug-22 14:30N 38°19' E 014°55'510.8
2017-Aug-22 14:00N 38°19' E 015°02'511.1
2017-Aug-22 13:30N 38°20' E 015°09'510.8
2017-Aug-22 13:00N 38°20' E 015°15'510.7
2017-Aug-22 12:30N 38°20' E 015°22'510.6
2017-Aug-22 12:00N 38°20' E 015°29'510.2
2017-Aug-22 11:31N 38°20' E 015°35'5 9.8
2017-Aug-22 11:00N 38°19' E 015°41'4 7.8
2017-Aug-22 10:30N 38°15' E 015°40'4 8.7
2017-Aug-22 10:01N 38°11' E 015°37'611.2
2017-Aug-22 09:30N 38°06' E 015°36'510.3
2017-Aug-22 09:01N 38°01' E 015°35'510.1
2017-Aug-22 08:30N 37°56' E 015°36'611.1
2017-Aug-22 08:00N 37°52' E 015°41'510.0
2017-Aug-22 07:30N 37°50' E 015°47'610.6
2017-Aug-22 06:59N 37°50' E 015°54'  
2017-Aug-20 01:35N 44°13' E 013°11'110.4
2017-Aug-20 01:30N 44°13' E 013°10'510.6
2017-Aug-20 01:00N 44°17' E 013°05'18 7.7
2017-Aug-19 22:40N 44°26' E 012°43'1 1.1
2017-Aug-19 21:37N 44°25' E 012°42'0 1.1
2017-Aug-19 21:29N 44°25' E 012°42'1 1.1
2017-Aug-19 21:00N 44°25' E 012°43'1 1.1
2017-Aug-19 20:06N 44°24' E 012°44'0 2.8
2017-Aug-19 20:00N 44°24' E 012°44'1 1.2
2017-Aug-19 19:16N 44°25' E 012°43'5 7.1
2017-Aug-19 18:32N 44°27' E 012°36'0 9.7
2017-Aug-19 18:30N 44°27' E 012°36'5 9.8
2017-Aug-19 17:57N 44°30' E 012°29'2 3.6
2017-Aug-19 17:31N 44°31' E 012°28'0 0.0
2017-Aug-19 16:54N 44°31' E 012°28'0 0.0
2017-Aug-19 16:27N 44°31' E 012°28'0 0.0
2017-Aug-19 15:33N 44°31' E 012°28'0 0.0
2017-Aug-19 15:21N 44°31' E 012°28'0 0.0
2017-Aug-19 14:57N 44°31' E 012°28'0 0.0
2017-Aug-19 11:27N 44°31' E 012°28'0 0.0
2017-Aug-19 11:01N 44°31' E 012°28'0 0.0
2017-Aug-19 09:09N 44°31' E 012°28'0 0.0
2017-Aug-19 08:51N 44°31' E 012°28'0 0.0
2017-Aug-19 08:28N 44°31' E 012°28'0 0.0
2017-Aug-19 07:49N 44°31' E 012°28'0 0.0
2017-Aug-19 06:43N 44°31' E 012°28'0 0.0
2017-Aug-19 04:48N 44°31' E 012°28'0 0.0
2017-Aug-19 04:30N 44°31' E 012°28'0 0.0
2017-Aug-19 03:13N 44°31' E 012°28'0 0.0
2017-Aug-18 23:51N 44°31' E 012°28'0 0.0
2017-Aug-18 23:27N 44°31' E 012°28'0 0.0
2017-Aug-18 23:00N 44°31' E 012°28'0 0.0
2017-Aug-18 22:24N 44°31' E 012°28'0 0.0
2017-Aug-18 22:01N 44°31' E 012°28'0 0.0
2017-Aug-18 21:30N 44°31' E 012°28'0 0.0
2017-Aug-18 21:00N 44°31' E 012°28'0 0.0
2017-Aug-18 20:30N 44°31' E 012°28'0 0.0
2017-Aug-18 20:00N 44°31' E 012°28'0 0.0
2017-Aug-18 19:30N 44°31' E 012°28'0 0.0
2017-Aug-18 19:00N 44°31' E 012°28'0 0.0
2017-Aug-18 18:31N 44°31' E 012°28'0 0.0
2017-Aug-18 18:00N 44°31' E 012°28'0 0.0
2017-Aug-18 17:30N 44°31' E 012°28'0 0.0
2017-Aug-18 17:00N 44°31' E 012°28'0 0.0
2017-Aug-18 16:27N 44°31' E 012°28'0 0.0
2017-Aug-18 16:00N 44°31' E 012°28'0 0.0
2017-Aug-18 15:31N 44°31' E 012°28'0 0.0
2017-Aug-18 15:01N 44°31' E 012°28'0 0.0
2017-Aug-18 14:27N 44°31' E 012°28'0 0.0
2017-Aug-18 13:30N 44°31' E 012°28'0 0.0
2017-Aug-18 13:01N 44°31' E 012°28'0 0.1
2017-Aug-18 12:31N 44°31' E 012°28'0 0.1
2017-Aug-18 11:58N 44°31' E 012°28'0 0.1
2017-Aug-18 11:31N 44°31' E 012°28'0 0.0
2017-Aug-18 10:58N 44°31' E 012°28'0 0.0
2017-Aug-18 10:30N 44°31' E 012°28'0 0.0
2017-Aug-18 09:58N 44°31' E 012°28'0 0.0
2017-Aug-18 09:30N 44°31' E 012°28'0 0.0
2017-Aug-18 08:58N 44°31' E 012°28'0 0.0
2017-Aug-18 08:31N 44°31' E 012°28'0 0.0
2017-Aug-18 08:00N 44°31' E 012°28'0 0.0
2017-Aug-18 07:31N 44°31' E 012°28'0 0.0
2017-Aug-18 06:55N 44°31' E 012°28'0 0.0
2017-Aug-18 06:28N 44°31' E 012°28'0 0.0
2017-Aug-18 06:00N 44°31' E 012°28'0 0.0
2017-Aug-18 05:30N 44°31' E 012°28'0 0.0
2017-Aug-18 02:21N 44°31' E 012°28'0 0.0
2017-Aug-18 01:57N 44°31' E 012°28'0 0.0
2017-Aug-18 01:31N 44°31' E 012°28'0 0.0
2017-Aug-18 01:00N 44°31' E 012°28'0 0.0
2017-Aug-18 00:01N 44°31' E 012°28'0 0.0
2017-Aug-17 23:49N 44°31' E 012°28'0 0.0
2017-Aug-17 23:18N 44°31' E 012°28'0 0.0
2017-Aug-17 22:49N 44°31' E 012°28'0 0.0
2017-Aug-17 22:22N 44°31' E 012°28'0 0.0
2017-Aug-17 22:00N 44°31' E 012°28'0 0.0
2017-Aug-17 20:49N 44°31' E 012°28'0 0.0
2017-Aug-17 20:18N 44°31' E 012°28'0 0.0
2017-Aug-17 20:00N 44°31' E 012°28'0 0.0
2017-Aug-17 19:30N 44°31' E 012°28'0 0.0
2017-Aug-17 18:57N 44°31' E 012°28'0 0.1
2017-Aug-17 18:21N 44°31' E 012°28'0 0.1
2017-Aug-17 17:57N 44°31' E 012°28'0 0.0
2017-Aug-17 17:28N 44°31' E 012°28'0 0.0
2017-Aug-17 14:34N 44°31' E 012°28'0 0.0
2017-Aug-17 13:00N 44°31' E 012°28'0 0.0
2017-Aug-17 12:03N 44°31' E 012°28'0 0.0
2017-Aug-17 10:54N 44°31' E 012°28'0 0.0
2017-Aug-17 09:57N 44°31' E 012°28'0 0.0
2017-Aug-17 09:30N 44°31' E 012°28'0 0.0
2017-Aug-17 09:00N 44°31' E 012°28'0 0.0
2017-Aug-17 06:48N 44°31' E 012°28'0 0.0
2017-Aug-17 06:28N 44°31' E 012°28'0 0.1
2017-Aug-17 05:58N 44°31' E 012°28'0 0.0
2017-Aug-17 05:30N 44°31' E 012°28'0 0.0
2017-Aug-17 04:54N 44°31' E 012°28'0 0.0
2017-Aug-17 04:30N 44°31' E 012°28'0 0.0
2017-Aug-17 03:54N 44°31' E 012°28'0 0.0
2017-Aug-17 03:27N 44°31' E 012°28'0 0.0
2017-Aug-17 02:57N 44°31' E 012°28'0 0.0
2017-Aug-17 02:06N 44°31' E 012°28'0 0.2
2017-Aug-17 02:00N 44°31' E 012°28'0 0.0
2017-Aug-17 01:18N 44°31' E 012°28'0 0.0
2017-Aug-17 01:00N 44°31' E 012°28'0 0.1
2017-Aug-17 00:30N 44°31' E 012°28'0 0.0
2017-Aug-16 23:57N 44°31' E 012°28'0 0.0
2017-Aug-16 23:15N 44°31' E 012°28'0 0.1
2017-Aug-16 23:01N 44°31' E 012°28'0 0.1
2017-Aug-16 22:19N 44°31' E 012°28'0 0.0
2017-Aug-16 22:00N 44°31' E 012°28'0 0.0
2017-Aug-16 21:21N 44°31' E 012°28'0 0.0
2017-Aug-16 20:51N 44°31' E 012°28'0 0.0
2017-Aug-16 20:30N 44°31' E 012°28'0 0.0
2017-Aug-16 19:57N 44°31' E 012°28'0 0.0
2017-Aug-16 19:30N 44°31' E 012°28'0 0.0
2017-Aug-16 19:00N 44°31' E 012°28'0 0.1
2017-Aug-16 18:18N 44°31' E 012°28'0 0.0
2017-Aug-16 18:00N 44°31' E 012°28'0 0.0
2017-Aug-16 17:30N 44°31' E 012°28'0 0.0
2017-Aug-16 17:00N 44°31' E 012°28'0 0.0
2017-Aug-16 16:30N 44°31' E 012°28'0 0.0
2017-Aug-16 15:57N 44°31' E 012°28'0 0.0
2017-Aug-16 15:30N 44°31' E 012°28'0 0.0
2017-Aug-16 15:00N 44°31' E 012°28'0 0.0
2017-Aug-16 14:30N 44°31' E 012°28'0 0.0
2017-Aug-16 14:00N 44°31' E 012°28'0 0.0
2017-Aug-16 11:48N 44°31' E 012°28'0 0.0
2017-Aug-16 08:51N 44°31' E 012°28'0 0.0
2017-Aug-16 05:49N 44°31' E 012°28'0 0.0
2017-Aug-16 04:48N 44°31' E 012°28'0 0.1
2017-Aug-16 04:27N 44°31' E 012°28'0 0.0
2017-Aug-16 04:00N 44°31' E 012°28'0 0.1
2017-Aug-16 03:27N 44°31' E 012°28'0 0.0
2017-Aug-16 01:55N 44°31' E 012°28'0 0.0
2017-Aug-16 01:27N 44°31' E 012°28'0 0.0
2017-Aug-16 00:49N 44°31' E 012°28'0 0.0
2017-Aug-16 00:21N 44°31' E 012°28'0 0.0
2017-Aug-16 00:00N 44°31' E 012°28'0 0.0
2017-Aug-15 23:30N 44°31' E 012°28'0 0.0
2017-Aug-15 22:39N 44°31' E 012°28'0 0.0
2017-Aug-15 22:31N 44°31' E 012°28'0 0.0
2017-Aug-15 21:51N 44°31' E 012°28'0 0.0
2017-Aug-15 20:49N 44°31' E 012°28'0 0.0
2017-Aug-15 20:18N 44°31' E 012°28'0 0.0
2017-Aug-15 19:57N 44°31' E 012°28'0 0.0
2017-Aug-15 19:12N 44°31' E 012°28'0 0.0
2017-Aug-15 18:58N 44°31' E 012°28'0 0.0
2017-Aug-15 17:06N 44°31' E 012°28'0 0.0
2017-Aug-15 16:49N 44°31' E 012°28'0 0.0
2017-Aug-15 16:30N 44°31' E 012°28'0 0.0
2017-Aug-15 16:01N 44°31' E 012°28'0 0.0
2017-Aug-15 14:51N 44°31' E 012°28'0 0.0
2017-Aug-15 14:18N 44°31' E 012°28'0 0.0
2017-Aug-15 13:54N 44°31' E 012°28'0 0.0
2017-Aug-15 01:49N 44°31' E 012°28'0 0.0
2017-Aug-15 01:31N 44°31' E 012°28'0 0.0
2017-Aug-14 23:48N 44°31' E 012°28'0 0.0
2017-Aug-14 23:09N 44°31' E 012°28'0 0.0
2017-Aug-14 22:49N 44°31' E 012°28'0 0.0
2017-Aug-14 20:04N 44°31' E 012°28'0 0.0
2017-Aug-14 19:04N 44°31' E 012°28'0 0.0
2017-Aug-14 18:48N 44°31' E 012°28'0 0.0
2017-Aug-14 18:07N 44°31' E 012°28'0 0.0
2017-Aug-14 17:51N 44°31' E 012°28'0 0.0
2017-Aug-14 01:06N 44°31' E 012°28'0 0.1
2017-Aug-14 01:00N 44°31' E 012°28'0 0.1
2017-Aug-14 00:30N 44°31' E 012°28'0 0.0
2017-Aug-14 00:00N 44°31' E 012°28'0 0.0
2017-Aug-13 23:22N 44°31' E 012°28'0 0.0
2017-Aug-13 22:52N 44°31' E 012°28'0 0.0
2017-Aug-13 22:30N 44°31' E 012°28'0 0.0
2017-Aug-13 22:00N 44°31' E 012°28'0 0.0
2017-Aug-13 21:27N 44°31' E 012°28'0 0.0
2017-Aug-13 20:49N 44°31' E 012°28'0 0.0
2017-Aug-13 20:30N 44°31' E 012°28'0 0.0
2017-Aug-13 19:54N 44°31' E 012°28'0 0.0
2017-Aug-13 19:30N 44°31' E 012°28'0 0.0
2017-Aug-13 17:42N 44°31' E 012°28'0 0.0
2017-Aug-13 17:30N 44°31' E 012°28'0 0.0
2017-Aug-13 17:00N 44°31' E 012°28'  
Track history (hours):
 
Tides and Currents Weather Stations Pressure Air Temp Water Temp Dewpoint Dewpoint Depression Visibility Wind Speed Wind Dir Waves Ship Positions

Ft Sturla

Last reported at 2017-Aug-23 15:31 UTC. Time now 2017-Aug-23 15:44 UTC.
Position N 38°37' E 009°03'.

Length 120 m; draft 5.5 m.

Type: Ship. MMSI: 247282200.

Date/timePositionNaut miles runAvg speedWind from/ knotsBaromVisibWave heightAir tempDewpointWater temp
2017-Aug-23 15:31N 38°37' E 009°03'611.1
2017-Aug-23 15:00N 38°36' E 009°11'1111.1
2017-Aug-23 14:00N 38°35' E 009°25'610.9
2017-Aug-23 13:30N 38°35' E 009°32'610.9
2017-Aug-23 12:59N 38°35' E 009°39'711.0
2017-Aug-23 12:19N 38°34' E 009°48'14611.0
2017-Aug-22 23:06N 38°23' E 012°54'111.0
2017-Aug-22 22:59N 38°23' E 012°55'511.2
2017-Aug-22 22:30N 38°22' E 013°02'611.2
2017-Aug-22 22:01N 38°22' E 013°09'611.1
2017-Aug-22 21:31N 38°22' E 013°16'611.1
2017-Aug-22 21:01N 38°22' E 013°23'611.2
2017-Aug-22 20:30N 38°21' E 013°30'611.2
2017-Aug-22 20:01N 38°20' E 013°37'611.1
2017-Aug-22 19:30N 38°20' E 013°45'511.1
2017-Aug-22 19:00N 38°20' E 013°52'611.0
2017-Aug-22 18:30N 38°19' E 013°59'4411.0
2017-Aug-22 14:30N 38°19' E 014°55'510.8
2017-Aug-22 14:00N 38°19' E 015°02'511.1
2017-Aug-22 13:30N 38°20' E 015°09'510.8
2017-Aug-22 13:00N 38°20' E 015°15'510.7
2017-Aug-22 12:30N 38°20' E 015°22'510.6
2017-Aug-22 12:00N 38°20' E 015°29'510.2
2017-Aug-22 11:31N 38°20' E 015°35'5 9.8
2017-Aug-22 11:00N 38°19' E 015°41'4 7.8
2017-Aug-22 10:30N 38°15' E 015°40'4 8.7
2017-Aug-22 10:01N 38°11' E 015°37'611.2
2017-Aug-22 09:30N 38°06' E 015°36'510.3
2017-Aug-22 09:01N 38°01' E 015°35'510.1
2017-Aug-22 08:30N 37°56' E 015°36'611.1
2017-Aug-22 08:00N 37°52' E 015°41'510.0
2017-Aug-22 07:30N 37°50' E 015°47'610.6
2017-Aug-22 06:59N 37°50' E 015°54'  
2017-Aug-20 01:35N 44°13' E 013°11'110.4
2017-Aug-20 01:30N 44°13' E 013°10'510.6
2017-Aug-20 01:00N 44°17' E 013°05'18 7.7
2017-Aug-19 22:40N 44°26' E 012°43'1 1.1
2017-Aug-19 21:37N 44°25' E 012°42'0 1.1
2017-Aug-19 21:29N 44°25' E 012°42'1 1.1
2017-Aug-19 21:00N 44°25' E 012°43'1 1.1
2017-Aug-19 20:06N 44°24' E 012°44'0 2.8
2017-Aug-19 20:00N 44°24' E 012°44'1 1.2
2017-Aug-19 19:16N 44°25' E 012°43'5 7.1
2017-Aug-19 18:32N 44°27' E 012°36'0 9.7
2017-Aug-19 18:30N 44°27' E 012°36'5 9.8
2017-Aug-19 17:57N 44°30' E 012°29'2 3.6
2017-Aug-19 17:31N 44°31' E 012°28'0 0.0
2017-Aug-19 16:54N 44°31' E 012°28'0 0.0
2017-Aug-19 16:27N 44°31' E 012°28'0 0.0
2017-Aug-19 15:33N 44°31' E 012°28'0 0.0
2017-Aug-19 15:21N 44°31' E 012°28'0 0.0
2017-Aug-19 14:57N 44°31' E 012°28'0 0.0
2017-Aug-19 11:27N 44°31' E 012°28'0 0.0
2017-Aug-19 11:01N 44°31' E 012°28'0 0.0
2017-Aug-19 09:09N 44°31' E 012°28'0 0.0
2017-Aug-19 08:51N 44°31' E 012°28'0 0.0
2017-Aug-19 08:28N 44°31' E 012°28'0 0.0
2017-Aug-19 07:49N 44°31' E 012°28'0 0.0
2017-Aug-19 06:43N 44°31' E 012°28'0 0.0
2017-Aug-19 04:48N 44°31' E 012°28'0 0.0
2017-Aug-19 04:30N 44°31' E 012°28'0 0.0
2017-Aug-19 03:13N 44°31' E 012°28'0 0.0
2017-Aug-18 23:51N 44°31' E 012°28'0 0.0
2017-Aug-18 23:27N 44°31' E 012°28'0 0.0
2017-Aug-18 23:00N 44°31' E 012°28'0 0.0
2017-Aug-18 22:24N 44°31' E 012°28'0 0.0
2017-Aug-18 22:01N 44°31' E 012°28'0 0.0
2017-Aug-18 21:30N 44°31' E 012°28'0 0.0
2017-Aug-18 21:00N 44°31' E 012°28'0 0.0
2017-Aug-18 20:30N 44°31' E 012°28'0 0.0
2017-Aug-18 20:00N 44°31' E 012°28'0 0.0
2017-Aug-18 19:30N 44°31' E 012°28'0 0.0
2017-Aug-18 19:00N 44°31' E 012°28'0 0.0
2017-Aug-18 18:31N 44°31' E 012°28'0 0.0
2017-Aug-18 18:00N 44°31' E 012°28'0 0.0
2017-Aug-18 17:30N 44°31' E 012°28'0 0.0
2017-Aug-18 17:00N 44°31' E 012°28'0 0.0
2017-Aug-18 16:27N 44°31' E 012°28'0 0.0
2017-Aug-18 16:00N 44°31' E 012°28'0 0.0
2017-Aug-18 15:31N 44°31' E 012°28'0 0.0
2017-Aug-18 15:01N 44°31' E 012°28'0 0.0
2017-Aug-18 14:27N 44°31' E 012°28'0 0.0
2017-Aug-18 13:30N 44°31' E 012°28'0 0.0
2017-Aug-18 13:01N 44°31' E 012°28'0 0.1
2017-Aug-18 12:31N 44°31' E 012°28'0 0.1
2017-Aug-18 11:58N 44°31' E 012°28'0 0.1
2017-Aug-18 11:31N 44°31' E 012°28'0 0.0
2017-Aug-18 10:58N 44°31' E 012°28'0 0.0
2017-Aug-18 10:30N 44°31' E 012°28'0 0.0
2017-Aug-18 09:58N 44°31' E 012°28'0 0.0
2017-Aug-18 09:30N 44°31' E 012°28'0 0.0
2017-Aug-18 08:58N 44°31' E 012°28'0 0.0
2017-Aug-18 08:31N 44°31' E 012°28'0 0.0
2017-Aug-18 08:00N 44°31' E 012°28'0 0.0
2017-Aug-18 07:31N 44°31' E 012°28'0 0.0
2017-Aug-18 06:55N 44°31' E 012°28'0 0.0
2017-Aug-18 06:28N 44°31' E 012°28'0 0.0
2017-Aug-18 06:00N 44°31' E 012°28'0 0.0
2017-Aug-18 05:30N 44°31' E 012°28'0 0.0
2017-Aug-18 02:21N 44°31' E 012°28'0 0.0
2017-Aug-18 01:57N 44°31' E 012°28'0 0.0
2017-Aug-18 01:31N 44°31' E 012°28'0 0.0
2017-Aug-18 01:00N 44°31' E 012°28'0 0.0
2017-Aug-18 00:01N 44°31' E 012°28'0 0.0
2017-Aug-17 23:49N 44°31' E 012°28'0 0.0
2017-Aug-17 23:18N 44°31' E 012°28'0 0.0
2017-Aug-17 22:49N 44°31' E 012°28'0 0.0
2017-Aug-17 22:22N 44°31' E 012°28'0 0.0
2017-Aug-17 22:00N 44°31' E 012°28'0 0.0
2017-Aug-17 20:49N 44°31' E 012°28'0 0.0
2017-Aug-17 20:18N 44°31' E 012°28'0 0.0
2017-Aug-17 20:00N 44°31' E 012°28'0 0.0
2017-Aug-17 19:30N 44°31' E 012°28'0 0.0
2017-Aug-17 18:57N 44°31' E 012°28'0 0.1
2017-Aug-17 18:21N 44°31' E 012°28'0 0.1
2017-Aug-17 17:57N 44°31' E 012°28'0 0.0
2017-Aug-17 17:28N 44°31' E 012°28'0 0.0
2017-Aug-17 14:34N 44°31' E 012°28'0 0.0
2017-Aug-17 13:00N 44°31' E 012°28'0 0.0
2017-Aug-17 12:03N 44°31' E 012°28'0 0.0
2017-Aug-17 10:54N 44°31' E 012°28'0 0.0
2017-Aug-17 09:57N 44°31' E 012°28'0 0.0
2017-Aug-17 09:30N 44°31' E 012°28'0 0.0
2017-Aug-17 09:00N 44°31' E 012°28'0 0.0
2017-Aug-17 06:48N 44°31' E 012°28'0 0.0
2017-Aug-17 06:28N 44°31' E 012°28'0 0.1
2017-Aug-17 05:58N 44°31' E 012°28'0 0.0
2017-Aug-17 05:30N 44°31' E 012°28'0 0.0
2017-Aug-17 04:54N 44°31' E 012°28'0 0.0
2017-Aug-17 04:30N 44°31' E 012°28'0 0.0
2017-Aug-17 03:54N 44°31' E 012°28'0 0.0
2017-Aug-17 03:27N 44°31' E 012°28'0 0.0
2017-Aug-17 02:57N 44°31' E 012°28'0 0.0
2017-Aug-17 02:06N 44°31' E 012°28'0 0.2
2017-Aug-17 02:00N 44°31' E 012°28'0 0.0
2017-Aug-17 01:18N 44°31' E 012°28'0 0.0
2017-Aug-17 01:00N 44°31' E 012°28'0 0.1
2017-Aug-17 00:30N 44°31' E 012°28'0 0.0
2017-Aug-16 23:57N 44°31' E 012°28'0 0.0
2017-Aug-16 23:15N 44°31' E 012°28'0 0.1
2017-Aug-16 23:01N 44°31' E 012°28'0 0.1
2017-Aug-16 22:19N 44°31' E 012°28'0 0.0
2017-Aug-16 22:00N 44°31' E 012°28'0 0.0
2017-Aug-16 21:21N 44°31' E 012°28'0 0.0
2017-Aug-16 20:51N 44°31' E 012°28'0 0.0
2017-Aug-16 20:30N 44°31' E 012°28'0 0.0
2017-Aug-16 19:57N 44°31' E 012°28'0 0.0
2017-Aug-16 19:30N 44°31' E 012°28'0 0.0
2017-Aug-16 19:00N 44°31' E 012°28'0 0.1
2017-Aug-16 18:18N 44°31' E 012°28'0 0.0
2017-Aug-16 18:00N 44°31' E 012°28'0 0.0
2017-Aug-16 17:30N 44°31' E 012°28'0 0.0
2017-Aug-16 17:00N 44°31' E 012°28'0 0.0
2017-Aug-16 16:30N 44°31' E 012°28'0 0.0
2017-Aug-16 15:57N 44°31' E 012°28'0 0.0
2017-Aug-16 15:30N 44°31' E 012°28'0 0.0
2017-Aug-16 15:00N 44°31' E 012°28'0 0.0
2017-Aug-16 14:30N 44°31' E 012°28'0 0.0
2017-Aug-16 14:00N 44°31' E 012°28'0 0.0
2017-Aug-16 11:48N 44°31' E 012°28'0 0.0
2017-Aug-16 08:51N 44°31' E 012°28'0 0.0
2017-Aug-16 05:49N 44°31' E 012°28'0 0.0
2017-Aug-16 04:48N 44°31' E 012°28'0 0.1
2017-Aug-16 04:27N 44°31' E 012°28'0 0.0
2017-Aug-16 04:00N 44°31' E 012°28'0 0.1
2017-Aug-16 03:27N 44°31' E 012°28'0 0.0
2017-Aug-16 01:55N 44°31' E 012°28'0 0.0
2017-Aug-16 01:27N 44°31' E 012°28'0 0.0
2017-Aug-16 00:49N 44°31' E 012°28'0 0.0
2017-Aug-16 00:21N 44°31' E 012°28'0 0.0
2017-Aug-16 00:00N 44°31' E 012°28'0 0.0
2017-Aug-15 23:30N 44°31' E 012°28'0 0.0
2017-Aug-15 22:39N 44°31' E 012°28'0 0.0
2017-Aug-15 22:31N 44°31' E 012°28'0 0.0
2017-Aug-15 21:51N 44°31' E 012°28'0 0.0
2017-Aug-15 20:49N 44°31' E 012°28'0 0.0
2017-Aug-15 20:18N 44°31' E 012°28'0 0.0
2017-Aug-15 19:57N 44°31' E 012°28'0 0.0
2017-Aug-15 19:12N 44°31' E 012°28'0 0.0
2017-Aug-15 18:58N 44°31' E 012°28'0 0.0
2017-Aug-15 17:06N 44°31' E 012°28'0 0.0
2017-Aug-15 16:49N 44°31' E 012°28'0 0.0
2017-Aug-15 16:30N 44°31' E 012°28'0 0.0
2017-Aug-15 16:01N 44°31' E 012°28'0 0.0
2017-Aug-15 14:51N 44°31' E 012°28'0 0.0
2017-Aug-15 14:18N 44°31' E 012°28'0 0.0
2017-Aug-15 13:54N 44°31' E 012°28'0 0.0
2017-Aug-15 01:49N 44°31' E 012°28'0 0.0
2017-Aug-15 01:31N 44°31' E 012°28'0 0.0
2017-Aug-14 23:48N 44°31' E 012°28'0 0.0
2017-Aug-14 23:09N 44°31' E 012°28'0 0.0
2017-Aug-14 22:49N 44°31' E 012°28'0 0.0
2017-Aug-14 20:04N 44°31' E 012°28'0 0.0
2017-Aug-14 19:04N 44°31' E 012°28'0 0.0
2017-Aug-14 18:48N 44°31' E 012°28'0 0.0
2017-Aug-14 18:07N 44°31' E 012°28'0 0.0
2017-Aug-14 17:51N 44°31' E 012°28'0 0.0
2017-Aug-14 01:06N 44°31' E 012°28'0 0.1
2017-Aug-14 01:00N 44°31' E 012°28'0 0.1
2017-Aug-14 00:30N 44°31' E 012°28'0 0.0
2017-Aug-14 00:00N 44°31' E 012°28'0 0.0
2017-Aug-13 23:22N 44°31' E 012°28'0 0.0
2017-Aug-13 22:52N 44°31' E 012°28'0 0.0
2017-Aug-13 22:30N 44°31' E 012°28'0 0.0
2017-Aug-13 22:00N 44°31' E 012°28'0 0.0
2017-Aug-13 21:27N 44°31' E 012°28'0 0.0
2017-Aug-13 20:49N 44°31' E 012°28'0 0.0
2017-Aug-13 20:30N 44°31' E 012°28'0 0.0
2017-Aug-13 19:54N 44°31' E 012°28'0 0.0
2017-Aug-13 19:30N 44°31' E 012°28'0 0.0
2017-Aug-13 17:42N 44°31' E 012°28'0 0.0
2017-Aug-13 17:30N 44°31' E 012°28'0 0.0
2017-Aug-13 17:00N 44°31' E 012°28'  

Dump ship's entire track history